sensor_id;sensor_type;location;lat;lon;timestamp;P1;durP1;ratioP1;P2;durP2;ratioP2
33987;SDS011;37428;53.580;-1.666;2024-01-16T00:00:13;4.20;;;1.50;;
33987;SDS011;37428;53.580;-1.666;2024-01-16T00:03:16;2.40;;;1.30;;
33987;SDS011;37428;53.580;-1.666;2024-01-16T00:06:19;4.13;;;1.58;;
33987;SDS011;37428;53.580;-1.666;2024-01-16T00:09:21;5.18;;;1.58;;
33987;SDS011;37428;53.580;-1.666;2024-01-16T00:15:26;2.20;;;1.00;;
33987;SDS011;37428;53.580;-1.666;2024-01-16T00:18:29;4.30;;;1.50;;
33987;SDS011;37428;53.580;-1.666;2024-01-16T00:21:31;3.70;;;1.70;;
33987;SDS011;37428;53.580;-1.666;2024-01-16T00:24:33;3.55;;;1.50;;
33987;SDS011;37428;53.580;-1.666;2024-01-16T00:27:35;6.18;;;1.70;;
33987;SDS011;37428;53.580;-1.666;2024-01-16T00:30:39;4.82;;;1.45;;
33987;SDS011;37428;53.580;-1.666;2024-01-16T00:33:41;3.47;;;1.60;;
33987;SDS011;37428;53.580;-1.666;2024-01-16T00:36:43;3.65;;;1.27;;
33987;SDS011;37428;53.580;-1.666;2024-01-16T00:39:45;5.70;;;1.63;;
33987;SDS011;37428;53.580;-1.666;2024-01-16T00:42:47;3.83;;;1.67;;
33987;SDS011;37428;53.580;-1.666;2024-01-16T00:45:51;3.95;;;1.52;;
33987;SDS011;37428;53.580;-1.666;2024-01-16T00:48:53;4.00;;;1.55;;
33987;SDS011;37428;53.580;-1.666;2024-01-16T00:51:55;2.95;;;1.70;;
33987;SDS011;37428;53.580;-1.666;2024-01-16T00:54:58;2.58;;;1.40;;
33987;SDS011;37428;53.580;-1.666;2024-01-16T00:58:00;4.65;;;1.73;;
33987;SDS011;37428;53.580;-1.666;2024-01-16T01:01:03;4.93;;;1.80;;
33987;SDS011;37428;53.580;-1.666;2024-01-16T01:04:06;4.15;;;1.38;;
33987;SDS011;37428;53.580;-1.666;2024-01-16T01:07:08;4.30;;;2.17;;
33987;SDS011;37428;53.580;-1.666;2024-01-16T01:10:10;4.60;;;1.13;;
33987;SDS011;37428;53.580;-1.666;2024-01-16T01:13:12;5.80;;;1.20;;
33987;SDS011;37428;53.580;-1.666;2024-01-16T01:16:16;2.65;;;1.17;;
33987;SDS011;37428;53.580;-1.666;2024-01-16T01:19:18;1.73;;;0.80;;
33987;SDS011;37428;53.580;-1.666;2024-01-16T01:22:20;3.80;;;1.35;;
33987;SDS011;37428;53.580;-1.666;2024-01-16T01:25:22;1.58;;;0.90;;
33987;SDS011;37428;53.580;-1.666;2024-01-16T01:28:26;1.33;;;1.02;;
33987;SDS011;37428;53.580;-1.666;2024-01-16T01:31:29;3.20;;;1.35;;
33987;SDS011;37428;53.580;-1.666;2024-01-16T01:34:31;6.53;;;1.17;;
33987;SDS011;37428;53.580;-1.666;2024-01-16T01:37:34;2.63;;;1.15;;
33987;SDS011;37428;53.580;-1.666;2024-01-16T01:43:39;2.25;;;1.15;;
33987;SDS011;37428;53.580;-1.666;2024-01-16T01:46:42;3.50;;;1.10;;
33987;SDS011;37428;53.580;-1.666;2024-01-16T01:49:46;10.63;;;2.92;;
33987;SDS011;37428;53.580;-1.666;2024-01-16T01:55:50;4.27;;;1.60;;
33987;SDS011;37428;53.580;-1.666;2024-01-16T01:58:53;6.28;;;1.38;;
33987;SDS011;37428;53.580;-1.666;2024-01-16T02:02:00;3.88;;;1.42;;
33987;SDS011;37428;53.580;-1.666;2024-01-16T02:05:05;4.28;;;1.35;;
33987;SDS011;37428;53.580;-1.666;2024-01-16T02:08:07;2.65;;;1.13;;
33987;SDS011;37428;53.580;-1.666;2024-01-16T02:14:12;3.50;;;1.15;;
33987;SDS011;37428;53.580;-1.666;2024-01-16T02:17:15;4.32;;;1.35;;
33987;SDS011;37428;53.580;-1.666;2024-01-16T02:20:17;8.23;;;1.27;;
33987;SDS011;37428;53.580;-1.666;2024-01-16T02:23:22;7.05;;;1.50;;
33987;SDS011;37428;53.580;-1.666;2024-01-16T02:26:27;3.17;;;1.27;;
33987;SDS011;37428;53.580;-1.666;2024-01-16T02:29:30;3.17;;;1.63;;
33987;SDS011;37428;53.580;-1.666;2024-01-16T02:32:32;3.63;;;1.58;;
33987;SDS011;37428;53.580;-1.666;2024-01-16T02:35:34;4.70;;;1.17;;
33987;SDS011;37428;53.580;-1.666;2024-01-16T02:38:38;4.85;;;1.73;;
33987;SDS011;37428;53.580;-1.666;2024-01-16T02:41:40;5.07;;;1.15;;
33987;SDS011;37428;53.580;-1.666;2024-01-16T02:44:42;3.45;;;1.50;;
33987;SDS011;37428;53.580;-1.666;2024-01-16T02:47:44;3.17;;;1.27;;
33987;SDS011;37428;53.580;-1.666;2024-01-16T02:50:46;4.75;;;2.22;;
33987;SDS011;37428;53.580;-1.666;2024-01-16T02:53:50;4.32;;;1.30;;
33987;SDS011;37428;53.580;-1.666;2024-01-16T02:56:52;4.10;;;1.33;;
33987;SDS011;37428;53.580;-1.666;2024-01-16T03:02:56;5.67;;;1.70;;
33987;SDS011;37428;53.580;-1.666;2024-01-16T03:05:58;2.00;;;1.30;;
33987;SDS011;37428;53.580;-1.666;2024-01-16T03:09:02;1.17;;;1.02;;
33987;SDS011;37428;53.580;-1.666;2024-01-16T03:12:05;3.33;;;1.27;;
33987;SDS011;37428;53.580;-1.666;2024-01-16T03:15:07;4.47;;;1.52;;
33987;SDS011;37428;53.580;-1.666;2024-01-16T03:18:10;5.50;;;0.90;;
33987;SDS011;37428;53.580;-1.666;2024-01-16T03:21:12;5.13;;;1.15;;
33987;SDS011;37428;53.580;-1.666;2024-01-16T03:24:16;3.72;;;1.35;;
33987;SDS011;37428;53.580;-1.666;2024-01-16T03:27:18;3.00;;;1.10;;
33987;SDS011;37428;53.580;-1.666;2024-01-16T03:30:20;5.40;;;1.38;;
33987;SDS011;37428;53.580;-1.666;2024-01-16T03:33:22;4.32;;;1.10;;
33987;SDS011;37428;53.580;-1.666;2024-01-16T03:36:24;1.02;;;0.90;;
33987;SDS011;37428;53.580;-1.666;2024-01-16T03:39:28;2.13;;;0.73;;
33987;SDS011;37428;53.580;-1.666;2024-01-16T03:42:30;3.50;;;1.33;;
33987;SDS011;37428;53.580;-1.666;2024-01-16T03:45:32;3.03;;;1.15;;
33987;SDS011;37428;53.580;-1.666;2024-01-16T03:48:34;4.05;;;0.90;;
33987;SDS011;37428;53.580;-1.666;2024-01-16T03:51:36;5.32;;;1.35;;
33987;SDS011;37428;53.580;-1.666;2024-01-16T03:54:40;2.05;;;0.85;;
33987;SDS011;37428;53.580;-1.666;2024-01-16T03:57:42;6.75;;;1.58;;
33987;SDS011;37428;53.580;-1.666;2024-01-16T04:00:44;2.53;;;1.65;;
33987;SDS011;37428;53.580;-1.666;2024-01-16T04:03:47;5.47;;;2.08;;
33987;SDS011;37428;53.580;-1.666;2024-01-16T04:06:49;5.00;;;3.40;;
33987;SDS011;37428;53.580;-1.666;2024-01-16T04:09:53;6.07;;;3.63;;
33987;SDS011;37428;53.580;-1.666;2024-01-16T04:12:55;6.93;;;3.95;;
33987;SDS011;37428;53.580;-1.666;2024-01-16T04:15:57;10.65;;;4.00;;
33987;SDS011;37428;53.580;-1.666;2024-01-16T04:18:59;8.60;;;4.22;;
33987;SDS011;37428;53.580;-1.666;2024-01-16T04:22:03;6.95;;;4.85;;
33987;SDS011;37428;53.580;-1.666;2024-01-16T04:25:07;8.43;;;5.47;;
33987;SDS011;37428;53.580;-1.666;2024-01-16T04:28:09;12.48;;;6.43;;
33987;SDS011;37428;53.580;-1.666;2024-01-16T04:31:12;8.98;;;5.47;;
33987;SDS011;37428;53.580;-1.666;2024-01-16T04:34:14;13.27;;;6.72;;
33987;SDS011;37428;53.580;-1.666;2024-01-16T04:37:16;16.17;;;6.80;;
33987;SDS011;37428;53.580;-1.666;2024-01-16T04:40:19;12.50;;;7.78;;
33987;SDS011;37428;53.580;-1.666;2024-01-16T04:43:22;13.65;;;7.95;;
33987;SDS011;37428;53.580;-1.666;2024-01-16T04:46:24;19.98;;;8.15;;
33987;SDS011;37428;53.580;-1.666;2024-01-16T04:49:26;15.95;;;7.30;;
33987;SDS011;37428;53.580;-1.666;2024-01-16T04:52:28;17.02;;;9.60;;
33987;SDS011;37428;53.580;-1.666;2024-01-16T04:55:32;24.98;;;10.65;;
33987;SDS011;37428;53.580;-1.666;2024-01-16T04:58:34;20.90;;;11.27;;
33987;SDS011;37428;53.580;-1.666;2024-01-16T05:01:36;20.27;;;11.35;;
33987;SDS011;37428;53.580;-1.666;2024-01-16T05:04:38;22.20;;;11.60;;
33987;SDS011;37428;53.580;-1.666;2024-01-16T05:07:40;23.42;;;12.18;;
33987;SDS011;37428;53.580;-1.666;2024-01-16T05:10:44;21.67;;;10.77;;
33987;SDS011;37428;53.580;-1.666;2024-01-16T05:13:46;20.63;;;10.85;;
33987;SDS011;37428;53.580;-1.666;2024-01-16T05:16:48;19.95;;;10.32;;
33987;SDS011;37428;53.580;-1.666;2024-01-16T05:19:51;18.10;;;9.82;;
33987;SDS011;37428;53.580;-1.666;2024-01-16T05:22:53;19.38;;;11.45;;
33987;SDS011;37428;53.580;-1.666;2024-01-16T05:25:56;21.83;;;11.00;;
33987;SDS011;37428;53.580;-1.666;2024-01-16T05:28:58;17.02;;;10.15;;
33987;SDS011;37428;53.580;-1.666;2024-01-16T05:32:00;17.55;;;10.05;;
33987;SDS011;37428;53.580;-1.666;2024-01-16T05:35:04;21.42;;;11.10;;
33987;SDS011;37428;53.580;-1.666;2024-01-16T05:38:06;15.60;;;10.73;;
33987;SDS011;37428;53.580;-1.666;2024-01-16T05:41:10;11.82;;;9.68;;
33987;SDS011;37428;53.580;-1.666;2024-01-16T05:44:12;13.77;;;10.07;;
33987;SDS011;37428;53.580;-1.666;2024-01-16T05:47:15;13.13;;;9.68;;
33987;SDS011;37428;53.580;-1.666;2024-01-16T05:50:18;16.48;;;10.38;;
33987;SDS011;37428;53.580;-1.666;2024-01-16T05:53:20;16.67;;;10.27;;
33987;SDS011;37428;53.580;-1.666;2024-01-16T05:56:23;12.40;;;8.77;;
33987;SDS011;37428;53.580;-1.666;2024-01-16T05:59:25;8.80;;;7.50;;
33987;SDS011;37428;53.580;-1.666;2024-01-16T06:02:27;7.32;;;6.22;;
33987;SDS011;37428;53.580;-1.666;2024-01-16T06:05:30;6.50;;;5.90;;
33987;SDS011;37428;53.580;-1.666;2024-01-16T06:08:32;6.88;;;5.82;;
33987;SDS011;37428;53.580;-1.666;2024-01-16T06:11:35;6.82;;;5.40;;
33987;SDS011;37428;53.580;-1.666;2024-01-16T06:14:38;5.25;;;4.75;;
33987;SDS011;37428;53.580;-1.666;2024-01-16T06:17:40;6.10;;;4.97;;
33987;SDS011;37428;53.580;-1.666;2024-01-16T06:20:42;4.82;;;4.43;;
33987;SDS011;37428;53.580;-1.666;2024-01-16T06:23:44;4.50;;;4.10;;
33987;SDS011;37428;53.580;-1.666;2024-01-16T06:26:48;3.65;;;3.35;;
33987;SDS011;37428;53.580;-1.666;2024-01-16T06:29:50;4.38;;;3.95;;
33987;SDS011;37428;53.580;-1.666;2024-01-16T06:32:52;4.60;;;4.10;;
33987;SDS011;37428;53.580;-1.666;2024-01-16T06:38:56;7.07;;;4.43;;
33987;SDS011;37428;53.580;-1.666;2024-01-16T06:42:00;3.90;;;3.20;;
33987;SDS011;37428;53.580;-1.666;2024-01-16T06:45:04;3.83;;;3.42;;
33987;SDS011;37428;53.580;-1.666;2024-01-16T06:48:07;3.85;;;3.42;;
33987;SDS011;37428;53.580;-1.666;2024-01-16T06:51:09;3.28;;;2.85;;
33987;SDS011;37428;53.580;-1.666;2024-01-16T06:54:14;4.93;;;3.28;;
33987;SDS011;37428;53.580;-1.666;2024-01-16T06:57:17;3.50;;;3.20;;
33987;SDS011;37428;53.580;-1.666;2024-01-16T07:00:19;3.58;;;3.25;;
33987;SDS011;37428;53.580;-1.666;2024-01-16T07:03:22;4.65;;;3.65;;
33987;SDS011;37428;53.580;-1.666;2024-01-16T07:06:25;3.75;;;3.33;;
33987;SDS011;37428;53.580;-1.666;2024-01-16T07:09:27;3.65;;;3.05;;
33987;SDS011;37428;53.580;-1.666;2024-01-16T07:12:30;5.43;;;2.60;;
33987;SDS011;37428;53.580;-1.666;2024-01-16T07:15:33;3.58;;;2.83;;
33987;SDS011;37428;53.580;-1.666;2024-01-16T07:18:35;4.72;;;2.72;;
33987;SDS011;37428;53.580;-1.666;2024-01-16T07:21:37;2.88;;;2.50;;
33987;SDS011;37428;53.580;-1.666;2024-01-16T07:24:39;3.22;;;2.85;;
33987;SDS011;37428;53.580;-1.666;2024-01-16T07:27:43;3.08;;;2.78;;
33987;SDS011;37428;53.580;-1.666;2024-01-16T07:30:48;3.67;;;3.17;;
33987;SDS011;37428;53.580;-1.666;2024-01-16T07:33:53;3.63;;;3.33;;
33987;SDS011;37428;53.580;-1.666;2024-01-16T07:36:55;3.95;;;3.55;;
33987;SDS011;37428;53.580;-1.666;2024-01-16T07:39:58;3.38;;;3.08;;
33987;SDS011;37428;53.580;-1.666;2024-01-16T07:43:01;4.82;;;4.32;;
33987;SDS011;37428;53.580;-1.666;2024-01-16T07:46:04;4.07;;;3.78;;
33987;SDS011;37428;53.580;-1.666;2024-01-16T07:49:06;4.15;;;3.78;;
33987;SDS011;37428;53.580;-1.666;2024-01-16T07:52:08;4.47;;;4.07;;
33987;SDS011;37428;53.580;-1.666;2024-01-16T07:55:10;4.13;;;3.72;;
33987;SDS011;37428;53.580;-1.666;2024-01-16T07:58:14;4.03;;;3.67;;
33987;SDS011;37428;53.580;-1.666;2024-01-16T08:01:16;3.38;;;3.00;;
33987;SDS011;37428;53.580;-1.666;2024-01-16T08:04:18;3.80;;;3.50;;
33987;SDS011;37428;53.580;-1.666;2024-01-16T08:07:20;3.85;;;3.47;;
33987;SDS011;37428;53.580;-1.666;2024-01-16T08:10:22;5.70;;;4.88;;
33987;SDS011;37428;53.580;-1.666;2024-01-16T08:13:26;3.83;;;3.53;;
33987;SDS011;37428;53.580;-1.666;2024-01-16T08:16:28;4.35;;;3.95;;
33987;SDS011;37428;53.580;-1.666;2024-01-16T08:19:30;4.45;;;4.05;;
33987;SDS011;37428;53.580;-1.666;2024-01-16T08:22:32;3.22;;;2.90;;
33987;SDS011;37428;53.580;-1.666;2024-01-16T08:25:34;4.25;;;3.85;;
33987;SDS011;37428;53.580;-1.666;2024-01-16T08:28:38;4.18;;;3.78;;
33987;SDS011;37428;53.580;-1.666;2024-01-16T08:31:40;4.50;;;4.10;;
33987;SDS011;37428;53.580;-1.666;2024-01-16T08:34:42;5.80;;;4.93;;
33987;SDS011;37428;53.580;-1.666;2024-01-16T08:37:45;5.25;;;4.43;;
33987;SDS011;37428;53.580;-1.666;2024-01-16T08:40:47;4.32;;;3.90;;
33987;SDS011;37428;53.580;-1.666;2024-01-16T08:43:51;4.18;;;3.78;;
33987;SDS011;37428;53.580;-1.666;2024-01-16T08:46:54;3.85;;;3.55;;
33987;SDS011;37428;53.580;-1.666;2024-01-16T08:49:57;3.75;;;3.45;;
33987;SDS011;37428;53.580;-1.666;2024-01-16T08:53:00;7.63;;;5.88;;
33987;SDS011;37428;53.580;-1.666;2024-01-16T08:59:08;4.90;;;4.50;;
33987;SDS011;37428;53.580;-1.666;2024-01-16T09:02:10;6.60;;;5.90;;
33987;SDS011;37428;53.580;-1.666;2024-01-16T09:05:12;5.07;;;4.68;;
33987;SDS011;37428;53.580;-1.666;2024-01-16T09:08:14;5.32;;;4.82;;
33987;SDS011;37428;53.580;-1.666;2024-01-16T09:11:17;5.05;;;4.65;;
33987;SDS011;37428;53.580;-1.666;2024-01-16T09:14:20;6.78;;;5.90;;
33987;SDS011;37428;53.580;-1.666;2024-01-16T09:17:22;7.07;;;6.00;;
33987;SDS011;37428;53.580;-1.666;2024-01-16T09:20:25;6.30;;;5.70;;
33987;SDS011;37428;53.580;-1.666;2024-01-16T09:23:27;9.10;;;6.70;;
33987;SDS011;37428;53.580;-1.666;2024-01-16T09:26:30;8.05;;;6.68;;
33987;SDS011;37428;53.580;-1.666;2024-01-16T09:29:34;13.38;;;8.68;;
33987;SDS011;37428;53.580;-1.666;2024-01-16T09:32:36;13.82;;;8.85;;
33987;SDS011;37428;53.580;-1.666;2024-01-16T09:35:38;6.85;;;6.18;;
33987;SDS011;37428;53.580;-1.666;2024-01-16T09:38:40;13.10;;;7.03;;
33987;SDS011;37428;53.580;-1.666;2024-01-16T09:41:44;6.10;;;5.50;;
33987;SDS011;37428;53.580;-1.666;2024-01-16T09:44:48;6.30;;;5.70;;
33987;SDS011;37428;53.580;-1.666;2024-01-16T09:47:51;5.35;;;4.85;;
33987;SDS011;37428;53.580;-1.666;2024-01-16T09:50:54;4.85;;;4.45;;
33987;SDS011;37428;53.580;-1.666;2024-01-16T09:53:56;4.97;;;4.15;;
33987;SDS011;37428;53.580;-1.666;2024-01-16T09:56:58;4.82;;;4.22;;
33987;SDS011;37428;53.580;-1.666;2024-01-16T10:00:06;7.22;;;4.53;;
33987;SDS011;37428;53.580;-1.666;2024-01-16T10:03:12;7.63;;;4.68;;
33987;SDS011;37428;53.580;-1.666;2024-01-16T10:06:15;4.97;;;4.00;;
33987;SDS011;37428;53.580;-1.666;2024-01-16T10:09:21;3.30;;;3.00;;
33987;SDS011;37428;53.580;-1.666;2024-01-16T10:12:23;5.10;;;3.60;;
33987;SDS011;37428;53.580;-1.666;2024-01-16T10:15:26;4.95;;;4.53;;
33987;SDS011;37428;53.580;-1.666;2024-01-16T10:18:29;6.05;;;3.95;;
33987;SDS011;37428;53.580;-1.666;2024-01-16T10:21:32;5.00;;;4.30;;
33987;SDS011;37428;53.580;-1.666;2024-01-16T10:24:34;4.50;;;4.10;;
33987;SDS011;37428;53.580;-1.666;2024-01-16T10:27:36;4.63;;;4.22;;
33987;SDS011;37428;53.580;-1.666;2024-01-16T10:30:41;7.68;;;3.30;;
33987;SDS011;37428;53.580;-1.666;2024-01-16T10:33:44;6.13;;;3.42;;
33987;SDS011;37428;53.580;-1.666;2024-01-16T10:36:46;6.30;;;3.10;;
33987;SDS011;37428;53.580;-1.666;2024-01-16T10:39:49;4.60;;;3.28;;
33987;SDS011;37428;53.580;-1.666;2024-01-16T10:42:58;4.93;;;2.90;;
33987;SDS011;37428;53.580;-1.666;2024-01-16T10:46:12;6.25;;;2.60;;
33987;SDS011;37428;53.580;-1.666;2024-01-16T10:49:15;6.47;;;2.55;;
33987;SDS011;37428;53.580;-1.666;2024-01-16T10:52:17;2.03;;;1.70;;
33987;SDS011;37428;53.580;-1.666;2024-01-16T10:55:21;2.75;;;2.20;;
33987;SDS011;37428;53.580;-1.666;2024-01-16T10:58:24;6.10;;;1.98;;
33987;SDS011;37428;53.580;-1.666;2024-01-16T11:04:30;2.05;;;1.30;;
33987;SDS011;37428;53.580;-1.666;2024-01-16T11:07:33;4.63;;;2.00;;
33987;SDS011;37428;53.580;-1.666;2024-01-16T11:10:37;4.32;;;2.60;;
33987;SDS011;37428;53.580;-1.666;2024-01-16T11:13:39;4.30;;;1.65;;
33987;SDS011;37428;53.580;-1.666;2024-01-16T11:16:46;5.35;;;1.40;;
33987;SDS011;37428;53.580;-1.666;2024-01-16T11:19:49;4.75;;;1.50;;
33987;SDS011;37428;53.580;-1.666;2024-01-16T11:22:51;3.30;;;1.50;;
33987;SDS011;37428;53.580;-1.666;2024-01-16T11:25:59;5.78;;;1.38;;
33987;SDS011;37428;53.580;-1.666;2024-01-16T11:32:39;4.07;;;0.85;;
33987;SDS011;37428;53.580;-1.666;2024-01-16T11:35:41;2.22;;;1.27;;
33987;SDS011;37428;53.580;-1.666;2024-01-16T11:38:44;3.33;;;0.82;;
33987;SDS011;37428;53.580;-1.666;2024-01-16T11:44:54;2.30;;;1.13;;
33987;SDS011;37428;53.580;-1.666;2024-01-16T11:48:09;1.27;;;1.10;;
33987;SDS011;37428;53.580;-1.666;2024-01-16T11:51:22;2.72;;;1.55;;
33987;SDS011;37428;53.580;-1.666;2024-01-16T11:54:25;5.10;;;1.27;;
33987;SDS011;37428;53.580;-1.666;2024-01-16T11:57:36;3.55;;;1.33;;
33987;SDS011;37428;53.580;-1.666;2024-01-16T12:00:51;3.17;;;1.52;;
33987;SDS011;37428;53.580;-1.666;2024-01-16T12:04:05;5.65;;;2.40;;
33987;SDS011;37428;53.580;-1.666;2024-01-16T12:07:07;6.03;;;1.92;;
33987;SDS011;37428;53.580;-1.666;2024-01-16T12:10:11;1.88;;;1.42;;
33987;SDS011;37428;53.580;-1.666;2024-01-16T12:16:18;7.90;;;1.57;;
33987;SDS011;37428;53.580;-1.666;2024-01-16T12:19:22;1.15;;;0.73;;
33987;SDS011;37428;53.580;-1.666;2024-01-16T12:22:24;1.05;;;0.95;;
33987;SDS011;37428;53.580;-1.666;2024-01-16T12:25:27;1.50;;;0.90;;
33987;SDS011;37428;53.580;-1.666;2024-01-16T12:28:30;1.20;;;1.10;;
33987;SDS011;37428;53.580;-1.666;2024-01-16T12:31:32;1.95;;;1.20;;
33987;SDS011;37428;53.580;-1.666;2024-01-16T12:34:41;3.35;;;1.00;;
33987;SDS011;37428;53.580;-1.666;2024-01-16T12:37:57;3.67;;;0.90;;
33987;SDS011;37428;53.580;-1.666;2024-01-16T12:41:00;8.52;;;4.05;;
33987;SDS011;37428;53.580;-1.666;2024-01-16T12:44:03;7.38;;;3.42;;
33987;SDS011;37428;53.580;-1.666;2024-01-16T12:47:05;18.63;;;5.85;;
33987;SDS011;37428;53.580;-1.666;2024-01-16T12:50:09;16.25;;;5.47;;
33987;SDS011;37428;53.580;-1.666;2024-01-16T12:53:12;5.88;;;2.70;;
33987;SDS011;37428;53.580;-1.666;2024-01-16T12:56:18;23.90;;;2.25;;
33987;SDS011;37428;53.580;-1.666;2024-01-16T12:59:21;3.10;;;2.15;;
33987;SDS011;37428;53.580;-1.666;2024-01-16T13:02:30;5.85;;;1.73;;
33987;SDS011;37428;53.580;-1.666;2024-01-16T13:05:35;2.33;;;1.83;;
33987;SDS011;37428;53.580;-1.666;2024-01-16T13:08:37;2.58;;;1.05;;
33987;SDS011;37428;53.580;-1.666;2024-01-16T13:11:46;1.88;;;0.90;;
33987;SDS011;37428;53.580;-1.666;2024-01-16T13:14:51;1.20;;;0.70;;
33987;SDS011;37428;53.580;-1.666;2024-01-16T13:17:54;1.35;;;0.77;;
33987;SDS011;37428;53.580;-1.666;2024-01-16T13:20:58;2.35;;;1.00;;
33987;SDS011;37428;53.580;-1.666;2024-01-16T13:24:02;5.22;;;1.05;;
33987;SDS011;37428;53.580;-1.666;2024-01-16T13:27:05;2.53;;;0.95;;
33987;SDS011;37428;53.580;-1.666;2024-01-16T13:30:09;2.63;;;0.90;;
33987;SDS011;37428;53.580;-1.666;2024-01-16T13:33:12;3.78;;;0.90;;
33987;SDS011;37428;53.580;-1.666;2024-01-16T13:36:15;7.03;;;0.82;;
33987;SDS011;37428;53.580;-1.666;2024-01-16T13:39:18;3.45;;;1.02;;
33987;SDS011;37428;53.580;-1.666;2024-01-16T13:45:22;2.78;;;1.45;;
33987;SDS011;37428;53.580;-1.666;2024-01-16T13:48:24;4.95;;;1.45;;
33987;SDS011;37428;53.580;-1.666;2024-01-16T13:51:28;5.35;;;2.13;;
33987;SDS011;37428;53.580;-1.666;2024-01-16T13:54:30;4.38;;;1.63;;
33987;SDS011;37428;53.580;-1.666;2024-01-16T13:57:32;3.67;;;1.90;;
33987;SDS011;37428;53.580;-1.666;2024-01-16T14:00:35;3.10;;;1.60;;
33987;SDS011;37428;53.580;-1.666;2024-01-16T14:03:37;3.22;;;1.98;;
33987;SDS011;37428;53.580;-1.666;2024-01-16T14:09:43;3.72;;;1.45;;
33987;SDS011;37428;53.580;-1.666;2024-01-16T14:12:46;2.58;;;1.65;;
33987;SDS011;37428;53.580;-1.666;2024-01-16T14:15:50;1.63;;;1.25;;
33987;SDS011;37428;53.580;-1.666;2024-01-16T14:18:52;5.55;;;1.30;;
33987;SDS011;37428;53.580;-1.666;2024-01-16T14:21:55;3.03;;;1.38;;
33987;SDS011;37428;53.580;-1.666;2024-01-16T14:24:58;2.28;;;1.05;;
33987;SDS011;37428;53.580;-1.666;2024-01-16T14:28:01;4.80;;;1.60;;
33987;SDS011;37428;53.580;-1.666;2024-01-16T14:31:04;4.45;;;1.00;;
33987;SDS011;37428;53.580;-1.666;2024-01-16T14:34:06;1.52;;;1.10;;
33987;SDS011;37428;53.580;-1.666;2024-01-16T14:37:09;2.55;;;1.00;;
33987;SDS011;37428;53.580;-1.666;2024-01-16T14:40:11;3.72;;;1.10;;
33987;SDS011;37428;53.580;-1.666;2024-01-16T14:43:20;1.80;;;0.90;;
33987;SDS011;37428;53.580;-1.666;2024-01-16T14:46:22;3.45;;;0.70;;
33987;SDS011;37428;53.580;-1.666;2024-01-16T14:49:25;3.28;;;1.10;;
33987;SDS011;37428;53.580;-1.666;2024-01-16T14:52:33;7.93;;;1.30;;
33987;SDS011;37428;53.580;-1.666;2024-01-16T14:55:35;2.28;;;0.85;;
33987;SDS011;37428;53.580;-1.666;2024-01-16T14:58:37;4.50;;;1.30;;
33987;SDS011;37428;53.580;-1.666;2024-01-16T15:01:40;2.85;;;1.00;;
33987;SDS011;37428;53.580;-1.666;2024-01-16T15:04:42;2.13;;;0.88;;
33987;SDS011;37428;53.580;-1.666;2024-01-16T15:07:46;2.60;;;0.80;;
33987;SDS011;37428;53.580;-1.666;2024-01-16T15:10:48;2.65;;;0.77;;
33987;SDS011;37428;53.580;-1.666;2024-01-16T15:13:50;6.35;;;1.08;;
33987;SDS011;37428;53.580;-1.666;2024-01-16T15:16:52;3.58;;;1.13;;
33987;SDS011;37428;53.580;-1.666;2024-01-16T15:19:55;3.45;;;1.27;;
33987;SDS011;37428;53.580;-1.666;2024-01-16T15:22:59;1.40;;;0.55;;
33987;SDS011;37428;53.580;-1.666;2024-01-16T15:26:01;5.75;;;1.30;;
33987;SDS011;37428;53.580;-1.666;2024-01-16T15:29:04;11.30;;;1.20;;
33987;SDS011;37428;53.580;-1.666;2024-01-16T15:32:10;2.25;;;0.65;;
33987;SDS011;37428;53.580;-1.666;2024-01-16T15:35:12;3.50;;;1.20;;
33987;SDS011;37428;53.580;-1.666;2024-01-16T15:38:16;2.65;;;1.10;;
33987;SDS011;37428;53.580;-1.666;2024-01-16T15:41:18;2.38;;;0.93;;
33987;SDS011;37428;53.580;-1.666;2024-01-16T15:44:20;3.75;;;1.38;;
33987;SDS011;37428;53.580;-1.666;2024-01-16T15:47:22;4.25;;;1.70;;
33987;SDS011;37428;53.580;-1.666;2024-01-16T15:50:25;7.50;;;1.60;;
33987;SDS011;37428;53.580;-1.666;2024-01-16T15:53:30;4.70;;;1.15;;
33987;SDS011;37428;53.580;-1.666;2024-01-16T15:56:34;1.98;;;1.23;;
33987;SDS011;37428;53.580;-1.666;2024-01-16T15:59:36;6.88;;;1.30;;
33987;SDS011;37428;53.580;-1.666;2024-01-16T16:02:38;3.30;;;1.60;;
33987;SDS011;37428;53.580;-1.666;2024-01-16T16:05:41;3.17;;;1.30;;
33987;SDS011;37428;53.580;-1.666;2024-01-16T16:08:44;5.40;;;1.77;;
33987;SDS011;37428;53.580;-1.666;2024-01-16T16:11:46;5.35;;;2.78;;
33987;SDS011;37428;53.580;-1.666;2024-01-16T16:14:49;9.23;;;5.22;;
33987;SDS011;37428;53.580;-1.666;2024-01-16T16:20:54;4.72;;;1.67;;
33987;SDS011;37428;53.580;-1.666;2024-01-16T16:23:58;3.15;;;1.60;;
33987;SDS011;37428;53.580;-1.666;2024-01-16T16:27:00;2.78;;;1.00;;
33987;SDS011;37428;53.580;-1.666;2024-01-16T16:30:05;3.70;;;1.45;;
33987;SDS011;37428;53.580;-1.666;2024-01-16T16:33:08;4.63;;;0.90;;
33987;SDS011;37428;53.580;-1.666;2024-01-16T16:39:14;5.57;;;1.55;;
33987;SDS011;37428;53.580;-1.666;2024-01-16T16:42:17;5.57;;;1.58;;
33987;SDS011;37428;53.580;-1.666;2024-01-16T16:45:21;2.75;;;1.25;;
33987;SDS011;37428;53.580;-1.666;2024-01-16T16:48:23;1.65;;;1.10;;
33987;SDS011;37428;53.580;-1.666;2024-01-16T16:51:25;6.25;;;1.58;;
33987;SDS011;37428;53.580;-1.666;2024-01-16T16:54:30;1.92;;;1.00;;
33987;SDS011;37428;53.580;-1.666;2024-01-16T16:57:32;3.13;;;1.00;;
33987;SDS011;37428;53.580;-1.666;2024-01-16T17:00:34;2.88;;;1.38;;
33987;SDS011;37428;53.580;-1.666;2024-01-16T17:03:36;3.63;;;1.65;;
33987;SDS011;37428;53.580;-1.666;2024-01-16T17:06:39;7.30;;;1.85;;
33987;SDS011;37428;53.580;-1.666;2024-01-16T17:09:42;2.42;;;1.15;;
33987;SDS011;37428;53.580;-1.666;2024-01-16T17:12:44;2.75;;;0.90;;
33987;SDS011;37428;53.580;-1.666;2024-01-16T17:15:48;3.80;;;1.23;;
33987;SDS011;37428;53.580;-1.666;2024-01-16T17:18:50;2.55;;;1.08;;
33987;SDS011;37428;53.580;-1.666;2024-01-16T17:21:52;4.15;;;1.60;;
33987;SDS011;37428;53.580;-1.666;2024-01-16T17:24:56;6.10;;;1.45;;
33987;SDS011;37428;53.580;-1.666;2024-01-16T17:27:58;1.00;;;0.65;;
33987;SDS011;37428;53.580;-1.666;2024-01-16T17:31:00;2.85;;;1.20;;
33987;SDS011;37428;53.580;-1.666;2024-01-16T17:34:03;4.82;;;1.70;;
33987;SDS011;37428;53.580;-1.666;2024-01-16T17:37:05;4.43;;;1.70;;
33987;SDS011;37428;53.580;-1.666;2024-01-16T17:40:09;4.60;;;1.67;;
33987;SDS011;37428;53.580;-1.666;2024-01-16T17:43:13;5.20;;;2.25;;
33987;SDS011;37428;53.580;-1.666;2024-01-16T17:46:15;2.15;;;1.02;;
33987;SDS011;37428;53.580;-1.666;2024-01-16T17:49:19;5.35;;;1.40;;
33987;SDS011;37428;53.580;-1.666;2024-01-16T17:52:21;4.68;;;1.70;;
33987;SDS011;37428;53.580;-1.666;2024-01-16T17:55:25;4.20;;;2.92;;
33987;SDS011;37428;53.580;-1.666;2024-01-16T17:58:30;6.88;;;1.92;;
33987;SDS011;37428;53.580;-1.666;2024-01-16T18:01:33;9.93;;;1.90;;
33987;SDS011;37428;53.580;-1.666;2024-01-16T18:04:35;3.70;;;1.48;;
33987;SDS011;37428;53.580;-1.666;2024-01-16T18:07:38;4.80;;;1.42;;
33987;SDS011;37428;53.580;-1.666;2024-01-16T18:10:41;6.00;;;1.88;;
33987;SDS011;37428;53.580;-1.666;2024-01-16T18:13:43;5.55;;;1.73;;
33987;SDS011;37428;53.580;-1.666;2024-01-16T18:16:46;4.28;;;1.40;;
33987;SDS011;37428;53.580;-1.666;2024-01-16T18:19:50;4.07;;;1.40;;
33987;SDS011;37428;53.580;-1.666;2024-01-16T18:25:57;2.78;;;1.55;;
33987;SDS011;37428;53.580;-1.666;2024-01-16T18:28:59;4.80;;;1.75;;
33987;SDS011;37428;53.580;-1.666;2024-01-16T18:32:01;3.65;;;2.13;;
33987;SDS011;37428;53.580;-1.666;2024-01-16T18:35:04;6.07;;;3.45;;
33987;SDS011;37428;53.580;-1.666;2024-01-16T18:38:08;3.35;;;1.50;;
33987;SDS011;37428;53.580;-1.666;2024-01-16T18:41:12;5.60;;;1.65;;
33987;SDS011;37428;53.580;-1.666;2024-01-16T18:44:15;2.97;;;1.58;;
33987;SDS011;37428;53.580;-1.666;2024-01-16T18:47:17;3.83;;;1.40;;
33987;SDS011;37428;53.580;-1.666;2024-01-16T18:50:20;3.20;;;1.50;;
33987;SDS011;37428;53.580;-1.666;2024-01-16T18:56:26;6.22;;;1.58;;